createdAt,value
2019-01-21T00:00:51.990Z,25.03
2019-01-21T00:03:36.636Z,28.73
2019-01-21T00:06:15.527Z,27.53
2019-01-21T00:09:21.162Z,27.57
2019-01-21T00:11:55.147Z,27.80
2019-01-21T00:14:59.366Z,29.30
2019-01-21T00:18:17.658Z,30.57
2019-01-21T00:21:21.510Z,26.70
2019-01-21T00:24:35.534Z,26.30
2019-01-21T00:27:27.696Z,28.30
2019-01-21T00:30:19.873Z,26.47
2019-01-21T00:33:07.095Z,27.33
2019-01-21T00:35:59.966Z,25.20
2019-01-21T00:39:08.809Z,28.37
2019-01-21T00:41:42.099Z,27.47
2019-01-21T00:44:36.280Z,28.37
2019-01-21T00:47:12.816Z,26.87
2019-01-21T00:50:08.185Z,25.83
2019-01-21T00:53:29.790Z,26.13
2019-01-21T00:56:43.570Z,26.50
2019-01-21T00:59:25.310Z,24.03
2019-01-21T01:02:30.093Z,25.37
2019-01-21T01:05:19.988Z,27.30
2019-01-21T01:08:31.917Z,30.80
2019-01-21T01:11:34.649Z,23.73
2019-01-21T01:14:51.051Z,25.63
2019-01-21T01:17:58.114Z,27.23
2019-01-21T01:21:15.205Z,25.17
2019-01-21T01:24:17.688Z,29.50
2019-01-21T01:26:55.631Z,26.43
2019-01-21T01:30:24.419Z,27.33
2019-01-21T01:33:33.936Z,28.47
2019-01-21T01:36:24.197Z,28.47
2019-01-21T01:39:07.281Z,31.80
2019-01-21T01:42:01.719Z,31.23
2019-01-21T01:45:28.418Z,34.43
2019-01-21T01:52:53.726Z,29.43
2019-01-21T01:55:49.002Z,27.80
2019-01-21T01:58:21.682Z,27.00
2019-01-21T02:01:34.784Z,29.80
2019-01-21T02:08:43.381Z,26.87
2019-01-21T02:12:26.228Z,27.47
2019-01-21T02:16:02.178Z,27.53
2019-01-21T02:30:17.807Z,30.07
2019-01-21T02:34:10.250Z,31.23
2019-01-21T02:37:35.421Z,30.33
2019-01-21T02:41:28.688Z,31.17
2019-01-21T02:44:35.908Z,30.17
2019-01-21T02:48:00.081Z,27.43
2019-01-21T02:51:55.527Z,32.63
2019-01-21T02:55:08.080Z,28.00
2019-01-21T02:58:25.231Z,25.77
2019-01-21T03:01:56.453Z,27.97
2019-01-21T03:05:27.228Z,29.40
2019-01-21T03:13:33.813Z,28.90
2019-01-21T03:16:05.153Z,27.90
2019-01-21T03:20:23.702Z,25.80
2019-01-21T03:28:10.284Z,30.83
2019-01-21T03:40:00.370Z,26.73
2019-01-21T03:43:38.632Z,30.93
2019-01-21T03:47:01.285Z,27.97
2019-01-21T03:50:25.374Z,26.53
2019-01-21T03:53:47.091Z,28.83
2019-01-21T04:01:16.799Z,32.17
2019-01-21T04:09:01.110Z,30.47
2019-01-21T04:12:12.928Z,28.67
2019-01-21T04:15:17.947Z,28.57
2019-01-21T04:18:15.733Z,31.43
2019-01-21T04:21:16.978Z,34.00
2019-01-21T04:24:28.126Z,30.13
2019-01-21T04:27:14.019Z,32.70
2019-01-21T04:30:29.160Z,27.23
2019-01-21T04:33:57.077Z,29.07
2019-01-21T04:37:14.980Z,30.03
2019-01-21T04:39:54.150Z,28.10
2019-01-21T04:43:13.409Z,29.60
2019-01-21T04:46:30.087Z,26.97
2019-01-21T04:49:43.859Z,32.70
2019-01-21T04:52:42.962Z,30.43
2019-01-21T04:55:49.424Z,34.07
2019-01-21T04:58:49.038Z,30.63
2019-01-21T05:02:03.985Z,31.83
2019-01-21T05:04:59.973Z,31.68
2019-01-21T05:08:06.319Z,32.77
2019-01-21T05:11:04.087Z,29.03
2019-01-21T05:14:24.975Z,32.30
2019-01-21T05:17:47.244Z,30.00
2019-01-21T05:28:45.243Z,30.23
2019-01-21T05:38:18.490Z,31.67
2019-01-21T05:41:20.450Z,31.70
2019-01-21T05:44:26.836Z,29.87
2019-01-21T05:47:22.228Z,29.07
2019-01-21T05:50:28.389Z,29.63
2019-01-21T05:53:36.066Z,35.83
2019-01-21T05:56:38.999Z,32.10
2019-01-21T05:59:41.585Z,33.02
2019-01-21T06:02:42.753Z,31.27
2019-01-21T06:05:42.621Z,31.40
2019-01-21T06:08:53.660Z,32.67
2019-01-21T06:11:43.314Z,26.83
2019-01-21T06:14:39.519Z,32.60
2019-01-21T06:18:01.793Z,29.30
2019-01-21T06:21:20.232Z,33.20
2019-01-21T06:24:28.250Z,26.90
2019-01-21T06:27:23.657Z,33.43
2019-01-21T06:30:41.542Z,33.23
2019-01-21T06:33:33.664Z,31.53
2019-01-21T06:36:27.910Z,29.95
2019-01-21T06:39:50.184Z,30.87
2019-01-21T06:43:06.259Z,28.50
2019-01-21T06:46:17.102Z,28.40
2019-01-21T06:49:20.432Z,30.13
2019-01-21T06:52:15.229Z,29.13
2019-01-21T06:55:15.002Z,32.80
2019-01-21T06:58:13.911Z,31.57
2019-01-21T07:01:26.305Z,29.53
2019-01-21T07:04:20.090Z,33.63
2019-01-21T07:07:33.675Z,31.73
2019-01-21T07:10:30.000Z,32.23
2019-01-21T07:13:35.890Z,36.80
2019-01-21T07:16:52.719Z,29.23
2019-01-21T07:19:48.908Z,31.87
2019-01-21T07:23:20.208Z,31.60
2019-01-21T07:26:18.098Z,28.07
2019-01-21T07:29:29.861Z,30.30
2019-01-21T07:32:16.574Z,34.33
2019-01-21T07:35:37.306Z,33.07
2019-01-21T07:38:16.071Z,30.30
2019-01-21T07:41:26.128Z,32.67
2019-01-21T07:44:22.286Z,34.70
2019-01-21T07:47:14.804Z,35.17
2019-01-21T07:50:24.034Z,35.90
2019-01-21T07:53:33.697Z,34.63
2019-01-21T07:56:45.963Z,33.57
2019-01-21T07:59:59.228Z,31.03
2019-01-21T08:03:15.582Z,35.10
2019-01-21T08:06:26.093Z,30.67
2019-01-21T08:09:21.664Z,32.27
2019-01-21T08:12:27.552Z,31.77
2019-01-21T08:15:03.782Z,38.23
2019-01-21T08:18:07.630Z,38.53
2019-01-21T08:21:01.808Z,40.27
2019-01-21T08:24:13.431Z,34.43
2019-01-21T08:27:22.690Z,28.40
2019-01-21T08:30:25.665Z,30.03
2019-01-21T08:33:28.398Z,32.60
2019-01-21T08:36:40.137Z,29.63
2019-01-21T08:39:30.151Z,34.17
2019-01-21T08:42:10.507Z,39.23
2019-01-21T08:45:14.448Z,34.97
2019-01-21T08:48:42.883Z,44.87
2019-01-21T08:51:53.448Z,32.80
2019-01-21T08:55:04.985Z,36.40
2019-01-21T08:57:49.139Z,32.07
2019-01-21T09:00:59.951Z,34.03
2019-01-21T09:03:44.437Z,31.90
2019-01-21T09:07:00.635Z,31.50
2019-01-21T09:10:10.469Z,32.73
2019-01-21T09:13:23.016Z,29.47
2019-01-21T09:16:32.005Z,30.20
2019-01-21T09:19:57.628Z,31.00
2019-01-21T09:23:41.096Z,32.57
2019-01-21T09:26:57.008Z,29.80
2019-01-21T09:29:53.548Z,34.83
2019-01-21T09:32:45.865Z,29.43
2019-01-21T09:35:52.410Z,32.57
2019-01-21T09:39:17.895Z,31.47
2019-01-21T09:42:13.601Z,30.20
2019-01-21T09:45:13.815Z,31.20
2019-01-21T09:47:41.950Z,31.23
2019-01-21T09:50:11.914Z,29.57
2019-01-21T09:52:41.708Z,31.07
2019-01-21T09:55:11.391Z,31.13
2019-01-21T09:57:42.593Z,28.80
2019-01-21T10:00:18.394Z,33.03
2019-01-21T10:02:49.836Z,32.00
2019-01-21T10:05:19.989Z,28.93
2019-01-21T10:08:06.212Z,32.70
2019-01-21T10:11:12.215Z,31.73
2019-01-21T10:14:40.916Z,30.13
2019-01-21T10:17:25.575Z,32.77
2019-01-21T10:20:32.477Z,29.53
2019-01-21T10:23:49.057Z,30.40
2019-01-21T10:27:02.401Z,27.03
2019-01-21T10:29:53.720Z,24.30
2019-01-21T10:33:01.491Z,28.50
2019-01-21T10:36:04.892Z,26.67
2019-01-21T10:39:26.150Z,27.67
2019-01-21T10:42:20.350Z,28.93
2019-01-21T10:45:07.895Z,28.87
2019-01-21T10:48:02.971Z,25.73
2019-01-21T10:51:07.119Z,29.27
2019-01-21T10:54:44.257Z,28.67
2019-01-21T10:57:27.226Z,25.83
2019-01-21T11:00:31.821Z,27.70
2019-01-21T11:03:54.174Z,26.10
2019-01-21T11:07:02.877Z,29.23
2019-01-21T11:10:02.849Z,26.87
2019-01-21T11:12:53.659Z,27.80
2019-01-21T11:15:43.678Z,26.23
2019-01-21T11:19:10.685Z,31.87
2019-01-21T11:33:02.175Z,31.57
2019-01-21T11:41:35.437Z,30.17
2019-01-21T11:44:39.487Z,31.62
2019-01-21T11:47:59.117Z,30.10
2019-01-21T11:51:01.510Z,28.93
2019-01-21T11:53:51.532Z,27.97
2019-01-21T11:56:30.202Z,25.93
2019-01-21T11:59:49.715Z,27.07
2019-01-21T12:02:54.510Z,27.73
2019-01-21T12:05:37.150Z,27.53
2019-01-21T12:08:41.219Z,30.50
2019-01-21T12:11:41.249Z,31.27
2019-01-21T12:14:57.856Z,29.60
2019-01-21T12:17:59.128Z,32.00
2019-01-21T12:21:20.533Z,28.07
2019-01-21T12:24:14.868Z,34.87
2019-01-21T12:27:26.375Z,30.20
2019-01-21T12:30:23.692Z,27.07
2019-01-21T12:33:34.037Z,30.92
2019-01-21T12:36:17.139Z,28.63
2019-01-21T12:39:05.426Z,31.87
2019-01-21T12:41:44.831Z,30.87
2019-01-21T12:45:04.185Z,27.33
2019-01-21T12:47:44.388Z,27.67
2019-01-21T12:50:49.567Z,29.33
2019-01-21T12:53:42.547Z,27.73
2019-01-21T12:57:11.174Z,32.40
2019-01-21T13:00:12.006Z,28.50
2019-01-21T13:02:58.647Z,29.00
2019-01-21T13:06:17.990Z,28.03
2019-01-21T13:09:26.478Z,32.87
2019-01-21T13:12:28.799Z,38.97
2019-01-21T13:15:06.130Z,30.37
2019-01-21T13:18:28.462Z,31.10
2019-01-21T13:21:21.809Z,30.67
2019-01-21T13:24:01.353Z,31.70
2019-01-21T13:27:11.750Z,31.10
2019-01-21T13:30:15.071Z,31.03
2019-01-21T13:33:35.024Z,33.10
2019-01-21T13:37:00.817Z,29.13
2019-01-21T13:39:42.615Z,33.50
2019-01-21T13:42:33.355Z,37.30
2019-01-21T13:45:44.229Z,34.90
2019-01-21T13:48:55.240Z,36.03
2019-01-21T13:52:00.551Z,36.87
2019-01-21T13:55:09.780Z,34.77
2019-01-21T13:58:19.904Z,35.97
2019-01-21T14:01:23.909Z,34.43
2019-01-21T14:04:40.525Z,34.57
2019-01-21T14:07:48.034Z,35.17
2019-01-21T14:10:54.592Z,33.70
2019-01-21T14:13:35.948Z,33.77
2019-01-21T14:16:47.039Z,33.90
2019-01-21T14:19:33.801Z,38.83
2019-01-21T14:22:56.300Z,32.73
2019-01-21T14:26:15.081Z,33.77
2019-01-21T14:29:36.870Z,37.00
2019-01-21T14:32:23.939Z,38.77
2019-01-21T14:35:00.942Z,34.53
2019-01-21T14:37:46.713Z,34.03
2019-01-21T14:40:25.740Z,36.93
2019-01-21T14:43:23.960Z,37.17
2019-01-21T14:46:28.070Z,39.87
2019-01-21T14:49:24.331Z,39.83
2019-01-21T14:52:28.227Z,42.13
2019-01-21T14:55:38.929Z,41.40
2019-01-21T14:58:39.451Z,37.47
2019-01-21T15:02:11.257Z,37.23
2019-01-21T15:05:06.144Z,37.47
2019-01-21T15:07:47.483Z,35.67
2019-01-21T15:11:02.574Z,39.43
2019-01-21T15:14:15.127Z,41.53
2019-01-21T15:17:28.297Z,43.50
2019-01-21T15:20:41.126Z,44.23
2019-01-21T15:23:50.558Z,35.47
2019-01-21T15:27:03.295Z,40.73
2019-01-21T15:30:05.161Z,38.40
2019-01-21T15:33:06.108Z,34.60
2019-01-21T15:36:07.415Z,40.77
2019-01-21T15:39:04.869Z,42.77
2019-01-21T15:41:56.999Z,35.47
2019-01-21T15:45:34.996Z,36.27
2019-01-21T15:51:27.291Z,38.40
2019-01-21T15:54:35.176Z,40.33
2019-01-21T15:57:45.121Z,38.60
2019-01-21T16:01:14.036Z,38.07
2019-01-21T16:04:06.722Z,41.37
2019-01-21T16:06:45.243Z,39.97
2019-01-21T16:09:51.624Z,39.67
2019-01-21T16:12:45.343Z,39.33
2019-01-21T16:16:02.156Z,42.07
2019-01-21T16:18:37.843Z,39.87
2019-01-21T16:21:37.147Z,42.27
2019-01-21T16:24:31.395Z,40.73
2019-01-21T16:27:22.840Z,41.43
2019-01-21T16:30:18.640Z,39.27
2019-01-21T16:33:43.060Z,43.87
2019-01-21T16:36:26.624Z,41.17
2019-01-21T16:39:27.765Z,39.03
2019-01-21T16:42:14.986Z,38.97
2019-01-21T16:44:46.650Z,41.37
2019-01-21T16:47:16.232Z,43.60
2019-01-21T16:49:45.933Z,40.93
2019-01-21T16:52:15.477Z,39.87
2019-01-21T16:54:45.073Z,42.60
2019-01-21T16:57:14.654Z,46.03
2019-01-21T16:59:44.244Z,39.83
2019-01-21T17:02:13.817Z,40.37
2019-01-21T17:04:43.390Z,42.70
2019-01-21T17:07:13.176Z,41.50
2019-01-21T17:09:42.755Z,41.20
2019-01-21T17:12:12.391Z,39.93
2019-01-21T17:14:41.887Z,41.20
2019-01-21T17:19:40.980Z,40.87
2019-01-21T17:22:10.441Z,35.73
2019-01-21T17:24:40.002Z,39.35
2019-01-21T17:27:09.583Z,35.93
2019-01-21T17:29:39.103Z,36.40
2019-01-21T17:32:09.007Z,38.15
2019-01-21T17:34:38.610Z,40.63
2019-01-21T17:37:08.156Z,38.17
2019-01-21T17:39:37.683Z,32.33
2019-01-21T17:42:07.181Z,36.63
2019-01-21T17:44:55.763Z,35.10
2019-01-21T17:47:25.343Z,33.90
2019-01-21T17:49:55.032Z,34.57
2019-01-21T17:52:24.765Z,39.60
2019-01-21T17:54:55.798Z,40.47
2019-01-21T17:57:48.091Z,34.93
2019-01-21T18:03:50.881Z,36.10
2019-01-21T18:06:39.842Z,36.00
2019-01-21T18:09:28.652Z,35.07
2019-01-21T18:12:19.973Z,36.70
2019-01-21T18:15:09.987Z,37.77
2019-01-21T18:18:19.254Z,41.00
2019-01-21T18:21:11.274Z,35.27
2019-01-21T18:30:08.219Z,36.93
2019-01-21T18:32:38.027Z,38.63
2019-01-21T18:35:09.058Z,38.30
2019-01-21T18:37:38.764Z,35.93
2019-01-21T18:40:27.308Z,32.40
2019-01-21T18:43:15.921Z,32.60
2019-01-21T18:49:46.211Z,33.47
2019-01-21T18:51:59.082Z,33.67
2019-01-21T18:54:28.787Z,34.00
2019-01-21T18:56:58.831Z,30.97
2019-01-21T18:59:28.504Z,37.67
2019-01-21T19:02:17.206Z,33.53
2019-01-21T19:07:55.044Z,35.93
2019-01-21T19:10:43.575Z,33.43
2019-01-21T19:13:32.443Z,32.83
2019-01-21T19:16:21.176Z,38.10
2019-01-21T19:25:37.386Z,33.90
2019-01-21T19:28:26.435Z,33.40
2019-01-21T19:33:55.982Z,31.50
2019-01-21T19:42:13.549Z,35.63
2019-01-21T19:44:54.679Z,39.03
2019-01-21T19:47:36.142Z,32.93
2019-01-21T19:50:06.873Z,35.33
2019-01-21T19:52:36.544Z,38.93
2019-01-21T19:55:26.867Z,33.17
2019-01-21T19:58:23.191Z,34.30
2019-01-21T20:07:03.459Z,43.13
2019-01-21T20:12:51.085Z,37.43
2019-01-21T20:15:39.834Z,36.50
2019-01-21T20:18:09.447Z,40.13
2019-01-21T20:23:54.022Z,37.33
2019-01-21T20:26:43.317Z,37.77
2019-01-21T20:35:15.789Z,41.53
2019-01-21T20:37:48.743Z,37.00
2019-01-21T20:40:37.452Z,35.83
2019-01-21T20:46:23.774Z,37.17
2019-01-21T20:49:12.503Z,38.83
2019-01-21T20:52:01.014Z,36.80
2019-01-21T20:57:31.554Z,34.30
2019-01-21T21:03:21.449Z,38.90
2019-01-21T21:06:10.124Z,34.87
2019-01-21T21:08:40.333Z,36.57
2019-01-21T21:11:10.191Z,37.43
2019-01-21T21:13:39.902Z,38.43
2019-01-21T21:16:09.591Z,37.73
2019-01-21T21:18:39.328Z,37.53
2019-01-21T21:21:08.787Z,33.90
2019-01-21T21:29:41.925Z,33.90
2019-01-21T21:32:22.872Z,30.70
2019-01-21T21:34:52.468Z,35.83
2019-01-21T21:37:45.500Z,39.48
2019-01-21T21:40:16.783Z,33.17
2019-01-21T21:42:46.701Z,35.07
2019-01-21T21:45:21.392Z,39.20
2019-01-21T21:48:10.397Z,31.80
2019-01-21T21:50:58.984Z,33.73
2019-01-21T21:53:47.550Z,36.53
2019-01-21T21:56:36.471Z,34.83
2019-01-21T21:59:25.055Z,33.00
2019-01-21T22:02:13.618Z,33.30
2019-01-21T22:05:02.605Z,35.33
2019-01-21T22:07:51.181Z,30.80
2019-01-21T22:13:35.494Z,31.53
2019-01-21T22:16:26.286Z,32.30
2019-01-21T22:22:10.559Z,32.30
2019-01-21T22:24:59.938Z,37.77
2019-01-21T22:30:36.766Z,35.53
2019-01-21T22:33:06.873Z,36.50
2019-01-21T22:35:36.439Z,33.47
2019-01-21T22:38:05.996Z,33.40
2019-01-21T22:43:47.345Z,42.63
2019-01-21T22:46:17.482Z,42.50
2019-01-21T22:49:06.443Z,35.50
2019-01-21T22:51:36.007Z,38.60
2019-01-21T22:54:05.490Z,35.67
2019-01-21T22:59:49.877Z,37.90
2019-01-21T23:02:38.540Z,40.03
2019-01-21T23:05:28.468Z,38.27
2019-01-21T23:11:14.304Z,37.20
2019-01-21T23:16:58.685Z,35.97
2019-01-21T23:19:47.205Z,34.23
2019-01-21T23:22:16.751Z,34.97
2019-01-21T23:24:46.340Z,39.27
2019-01-21T23:27:34.933Z,34.63
2019-01-21T23:30:16.535Z,38.50
2019-01-21T23:32:57.273Z,35.53
2019-01-21T23:35:39.310Z,35.83
2019-01-21T23:38:20.880Z,35.67
2019-01-21T23:41:02.187Z,39.13
2019-01-21T23:46:30.138Z,37.63
2019-01-21T23:52:01.135Z,39.90
2019-01-21T23:54:46.779Z,38.97
